sensor_id;sensor_type;location;lat;lon;timestamp;temperature;humidity
74617;DHT22;63123;50.906;4.198;2023-08-24T00:01:30;21.30;73.90
74617;DHT22;63123;50.906;4.198;2023-08-24T00:03:56;21.30;73.90
74617;DHT22;63123;50.906;4.198;2023-08-24T00:06:21;21.30;73.90
74617;DHT22;63123;50.906;4.198;2023-08-24T00:08:47;21.30;73.90
74617;DHT22;63123;50.906;4.198;2023-08-24T00:11:13;21.30;73.90
74617;DHT22;63123;50.906;4.198;2023-08-24T00:13:43;21.30;73.90
74617;DHT22;63123;50.906;4.198;2023-08-24T00:16:18;21.30;73.90
74617;DHT22;63123;50.906;4.198;2023-08-24T00:18:44;21.30;74.30
74617;DHT22;63123;50.906;4.198;2023-08-24T00:21:11;21.30;73.90
74617;DHT22;63123;50.906;4.198;2023-08-24T00:23:36;21.30;73.90
74617;DHT22;63123;50.906;4.198;2023-08-24T00:26:02;21.30;73.90
74617;DHT22;63123;50.906;4.198;2023-08-24T00:28:27;21.30;73.90
74617;DHT22;63123;50.906;4.198;2023-08-24T00:30:53;21.30;73.90
74617;DHT22;63123;50.906;4.198;2023-08-24T00:33:19;21.30;73.90
74617;DHT22;63123;50.906;4.198;2023-08-24T00:35:45;21.30;73.90
74617;DHT22;63123;50.906;4.198;2023-08-24T00:38:10;21.30;73.90
74617;DHT22;63123;50.906;4.198;2023-08-24T00:40:36;21.30;73.90
74617;DHT22;63123;50.906;4.198;2023-08-24T00:43:02;21.30;73.90
74617;DHT22;63123;50.906;4.198;2023-08-24T00:45:28;21.30;73.90
74617;DHT22;63123;50.906;4.198;2023-08-24T00:47:55;21.30;73.90
74617;DHT22;63123;50.906;4.198;2023-08-24T00:50:20;21.30;73.90
74617;DHT22;63123;50.906;4.198;2023-08-24T00:52:47;21.30;74.00
74617;DHT22;63123;50.906;4.198;2023-08-24T00:55:14;21.30;73.90
74617;DHT22;63123;50.906;4.198;2023-08-24T00:57:41;21.30;73.90
74617;DHT22;63123;50.906;4.198;2023-08-24T01:02:40;21.30;73.90
74617;DHT22;63123;50.906;4.198;2023-08-24T01:05:06;21.30;73.90
74617;DHT22;63123;50.906;4.198;2023-08-24T01:07:34;21.30;73.90
74617;DHT22;63123;50.906;4.198;2023-08-24T01:10:03;21.30;73.90
74617;DHT22;63123;50.906;4.198;2023-08-24T01:12:37;21.30;73.90
74617;DHT22;63123;50.906;4.198;2023-08-24T01:15:19;21.30;73.90
74617;DHT22;63123;50.906;4.198;2023-08-24T01:17:47;21.30;74.00
74617;DHT22;63123;50.906;4.198;2023-08-24T01:20:15;21.30;74.00
74617;DHT22;63123;50.906;4.198;2023-08-24T01:22:58;21.30;74.00
74617;DHT22;63123;50.906;4.198;2023-08-24T01:25:38;21.30;74.00
74617;DHT22;63123;50.906;4.198;2023-08-24T01:28:06;21.30;74.00
74617;DHT22;63123;50.906;4.198;2023-08-24T01:30:34;21.30;74.00
74617;DHT22;63123;50.906;4.198;2023-08-24T01:33:03;21.30;74.00
74617;DHT22;63123;50.906;4.198;2023-08-24T01:35:30;21.30;74.00
74617;DHT22;63123;50.906;4.198;2023-08-24T01:37:56;21.30;74.00
74617;DHT22;63123;50.906;4.198;2023-08-24T01:40:26;21.30;74.00
74617;DHT22;63123;50.906;4.198;2023-08-24T01:43:04;21.30;74.00
74617;DHT22;63123;50.906;4.198;2023-08-24T01:45:32;21.30;74.00
74617;DHT22;63123;50.906;4.198;2023-08-24T01:48:03;21.20;73.90
74617;DHT22;63123;50.906;4.198;2023-08-24T01:50:30;21.30;74.00
74617;DHT22;63123;50.906;4.198;2023-08-24T01:52:56;21.30;74.00
74617;DHT22;63123;50.906;4.198;2023-08-24T01:55:23;21.30;74.00
74617;DHT22;63123;50.906;4.198;2023-08-24T01:57:49;21.30;74.00
74617;DHT22;63123;50.906;4.198;2023-08-24T02:00:14;21.30;74.00
74617;DHT22;63123;50.906;4.198;2023-08-24T02:02:42;21.30;74.00
74617;DHT22;63123;50.906;4.198;2023-08-24T02:05:07;21.30;74.00
74617;DHT22;63123;50.906;4.198;2023-08-24T02:07:33;21.30;74.00
74617;DHT22;63123;50.906;4.198;2023-08-24T02:09:59;21.30;74.00
74617;DHT22;63123;50.906;4.198;2023-08-24T02:12:24;21.30;74.00
74617;DHT22;63123;50.906;4.198;2023-08-24T02:14:50;21.30;74.00
74617;DHT22;63123;50.906;4.198;2023-08-24T02:17:16;21.30;74.00
74617;DHT22;63123;50.906;4.198;2023-08-24T02:19:41;21.30;74.00
74617;DHT22;63123;50.906;4.198;2023-08-24T02:22:08;21.30;74.10
74617;DHT22;63123;50.906;4.198;2023-08-24T02:24:33;21.30;74.10
74617;DHT22;63123;50.906;4.198;2023-08-24T02:27:00;21.30;74.10
74617;DHT22;63123;50.906;4.198;2023-08-24T02:29:25;21.30;74.10
74617;DHT22;63123;50.906;4.198;2023-08-24T02:31:51;21.30;74.10
74617;DHT22;63123;50.906;4.198;2023-08-24T02:34:17;21.30;74.10
74617;DHT22;63123;50.906;4.198;2023-08-24T02:36:43;21.30;74.10
74617;DHT22;63123;50.906;4.198;2023-08-24T02:39:08;21.30;74.10
74617;DHT22;63123;50.906;4.198;2023-08-24T02:41:34;21.30;74.10
74617;DHT22;63123;50.906;4.198;2023-08-24T02:44:01;21.30;74.10
74617;DHT22;63123;50.906;4.198;2023-08-24T02:46:27;21.30;74.10
74617;DHT22;63123;50.906;4.198;2023-08-24T02:48:52;21.30;74.10
74617;DHT22;63123;50.906;4.198;2023-08-24T02:51:21;21.30;74.10
74617;DHT22;63123;50.906;4.198;2023-08-24T02:53:46;21.30;74.10
74617;DHT22;63123;50.906;4.198;2023-08-24T02:56:12;21.30;74.20
74617;DHT22;63123;50.906;4.198;2023-08-24T02:58:38;21.30;74.10
74617;DHT22;63123;50.906;4.198;2023-08-24T03:01:05;21.30;74.10
74617;DHT22;63123;50.906;4.198;2023-08-24T03:03:34;21.30;74.10
74617;DHT22;63123;50.906;4.198;2023-08-24T03:06:02;21.30;74.20
74617;DHT22;63123;50.906;4.198;2023-08-24T03:08:30;21.30;74.20
74617;DHT22;63123;50.906;4.198;2023-08-24T03:10:56;21.30;74.20
74617;DHT22;63123;50.906;4.198;2023-08-24T03:13:22;21.30;74.20
74617;DHT22;63123;50.906;4.198;2023-08-24T03:15:49;21.30;74.20
74617;DHT22;63123;50.906;4.198;2023-08-24T03:18:16;21.30;74.20
74617;DHT22;63123;50.906;4.198;2023-08-24T03:20:43;21.30;74.20
74617;DHT22;63123;50.906;4.198;2023-08-24T03:23:08;21.30;74.20
74617;DHT22;63123;50.906;4.198;2023-08-24T03:25:39;21.30;74.20
74617;DHT22;63123;50.906;4.198;2023-08-24T03:28:06;21.30;74.20
74617;DHT22;63123;50.906;4.198;2023-08-24T03:30:36;21.30;74.20
74617;DHT22;63123;50.906;4.198;2023-08-24T03:33:03;21.20;74.10
74617;DHT22;63123;50.906;4.198;2023-08-24T03:35:30;21.30;74.20
74617;DHT22;63123;50.906;4.198;2023-08-24T03:37:56;21.30;74.20
74617;DHT22;63123;50.906;4.198;2023-08-24T03:40:21;21.30;74.20
74617;DHT22;63123;50.906;4.198;2023-08-24T03:42:47;21.30;74.20
74617;DHT22;63123;50.906;4.198;2023-08-24T03:45:13;21.30;74.20
74617;DHT22;63123;50.906;4.198;2023-08-24T03:47:39;21.30;74.20
74617;DHT22;63123;50.906;4.198;2023-08-24T03:50:05;21.30;74.20
74617;DHT22;63123;50.906;4.198;2023-08-24T03:52:31;21.30;74.20
74617;DHT22;63123;50.906;4.198;2023-08-24T03:54:57;21.30;74.20
74617;DHT22;63123;50.906;4.198;2023-08-24T03:57:22;21.30;74.20
74617;DHT22;63123;50.906;4.198;2023-08-24T03:59:48;21.30;74.20
74617;DHT22;63123;50.906;4.198;2023-08-24T04:02:14;21.30;74.20
74617;DHT22;63123;50.906;4.198;2023-08-24T04:04:40;21.20;74.20
74617;DHT22;63123;50.906;4.198;2023-08-24T04:07:05;21.30;74.20
74617;DHT22;63123;50.906;4.198;2023-08-24T04:09:31;21.30;74.20
74617;DHT22;63123;50.906;4.198;2023-08-24T04:11:57;21.30;74.20
74617;DHT22;63123;50.906;4.198;2023-08-24T04:14:22;21.30;74.20
74617;DHT22;63123;50.906;4.198;2023-08-24T04:16:48;21.30;74.20
74617;DHT22;63123;50.906;4.198;2023-08-24T04:19:14;21.30;74.30
74617;DHT22;63123;50.906;4.198;2023-08-24T04:21:39;21.30;74.20
74617;DHT22;63123;50.906;4.198;2023-08-24T04:24:05;21.30;74.30
74617;DHT22;63123;50.906;4.198;2023-08-24T04:26:31;21.30;74.30
74617;DHT22;63123;50.906;4.198;2023-08-24T04:28:57;21.30;74.30
74617;DHT22;63123;50.906;4.198;2023-08-24T04:31:23;21.30;74.30
74617;DHT22;63123;50.906;4.198;2023-08-24T04:33:48;21.30;74.80
74617;DHT22;63123;50.906;4.198;2023-08-24T04:36:14;21.30;74.30
74617;DHT22;63123;50.906;4.198;2023-08-24T04:38:40;21.30;74.30
74617;DHT22;63123;50.906;4.198;2023-08-24T04:41:08;21.30;74.30
74617;DHT22;63123;50.906;4.198;2023-08-24T04:43:34;21.30;74.30
74617;DHT22;63123;50.906;4.198;2023-08-24T04:46:02;21.30;74.30
74617;DHT22;63123;50.906;4.198;2023-08-24T04:48:27;21.30;74.30
74617;DHT22;63123;50.906;4.198;2023-08-24T04:50:58;21.30;74.30
74617;DHT22;63123;50.906;4.198;2023-08-24T04:53:23;21.30;74.30
74617;DHT22;63123;50.906;4.198;2023-08-24T04:55:49;21.30;74.30
74617;DHT22;63123;50.906;4.198;2023-08-24T04:58:15;21.20;74.30
74617;DHT22;63123;50.906;4.198;2023-08-24T05:00:41;21.30;74.30
74617;DHT22;63123;50.906;4.198;2023-08-24T05:03:07;21.20;74.30
74617;DHT22;63123;50.906;4.198;2023-08-24T05:05:34;21.30;74.30
74617;DHT22;63123;50.906;4.198;2023-08-24T05:08:01;21.30;74.30
74617;DHT22;63123;50.906;4.198;2023-08-24T05:10:31;21.20;74.30
74617;DHT22;63123;50.906;4.198;2023-08-24T05:12:57;21.30;74.60
74617;DHT22;63123;50.906;4.198;2023-08-24T05:15:23;21.30;74.30
74617;DHT22;63123;50.906;4.198;2023-08-24T05:17:48;21.30;74.30
74617;DHT22;63123;50.906;4.198;2023-08-24T05:20:14;21.20;74.30
74617;DHT22;63123;50.906;4.198;2023-08-24T05:22:40;21.30;74.30
74617;DHT22;63123;50.906;4.198;2023-08-24T05:25:06;21.30;74.30
74617;DHT22;63123;50.906;4.198;2023-08-24T05:27:32;21.30;74.30
74617;DHT22;63123;50.906;4.198;2023-08-24T05:29:57;21.30;74.30
74617;DHT22;63123;50.906;4.198;2023-08-24T05:32:23;21.30;74.30
74617;DHT22;63123;50.906;4.198;2023-08-24T05:34:49;21.30;75.00
74617;DHT22;63123;50.906;4.198;2023-08-24T05:37:16;21.30;74.40
74617;DHT22;63123;50.906;4.198;2023-08-24T05:39:41;21.30;74.40
74617;DHT22;63123;50.906;4.198;2023-08-24T05:42:08;21.30;74.40
74617;DHT22;63123;50.906;4.198;2023-08-24T05:44:34;21.30;74.40
74617;DHT22;63123;50.906;4.198;2023-08-24T05:46:59;21.30;74.40
74617;DHT22;63123;50.906;4.198;2023-08-24T05:49:25;21.30;74.40
74617;DHT22;63123;50.906;4.198;2023-08-24T05:51:51;21.30;74.40
74617;DHT22;63123;50.906;4.198;2023-08-24T05:54:17;21.30;74.40
74617;DHT22;63123;50.906;4.198;2023-08-24T05:56:46;21.30;74.40
74617;DHT22;63123;50.906;4.198;2023-08-24T05:59:12;21.30;74.40
74617;DHT22;63123;50.906;4.198;2023-08-24T06:01:38;21.30;74.40
74617;DHT22;63123;50.906;4.198;2023-08-24T06:04:08;21.30;74.40
74617;DHT22;63123;50.906;4.198;2023-08-24T06:06:34;21.20;74.40
74617;DHT22;63123;50.906;4.198;2023-08-24T06:08:59;21.20;74.40
74617;DHT22;63123;50.906;4.198;2023-08-24T06:11:25;21.30;74.40
74617;DHT22;63123;50.906;4.198;2023-08-24T06:13:50;21.20;74.40
74617;DHT22;63123;50.906;4.198;2023-08-24T06:16:19;21.30;74.40
74617;DHT22;63123;50.906;4.198;2023-08-24T06:18:45;21.30;74.40
74617;DHT22;63123;50.906;4.198;2023-08-24T06:21:10;21.30;74.40
74617;DHT22;63123;50.906;4.198;2023-08-24T06:23:36;21.30;74.40
74617;DHT22;63123;50.906;4.198;2023-08-24T06:26:02;21.30;74.40
74617;DHT22;63123;50.906;4.198;2023-08-24T06:28:27;21.30;74.40
74617;DHT22;63123;50.906;4.198;2023-08-24T06:30:55;21.30;74.40
74617;DHT22;63123;50.906;4.198;2023-08-24T06:33:20;21.30;74.40
74617;DHT22;63123;50.906;4.198;2023-08-24T06:35:46;21.30;74.40
74617;DHT22;63123;50.906;4.198;2023-08-24T06:38:12;21.30;74.50
74617;DHT22;63123;50.906;4.198;2023-08-24T06:40:39;21.30;74.50
74617;DHT22;63123;50.906;4.198;2023-08-24T06:43:04;21.30;74.50
74617;DHT22;63123;50.906;4.198;2023-08-24T06:45:31;21.30;74.40
74617;DHT22;63123;50.906;4.198;2023-08-24T06:47:56;21.30;74.50
74617;DHT22;63123;50.906;4.198;2023-08-24T06:50:22;21.30;74.40
74617;DHT22;63123;50.906;4.198;2023-08-24T06:52:48;21.20;74.40
74617;DHT22;63123;50.906;4.198;2023-08-24T06:55:13;21.30;74.40
74617;DHT22;63123;50.906;4.198;2023-08-24T06:57:39;21.30;74.50
74617;DHT22;63123;50.906;4.198;2023-08-24T07:00:06;21.30;74.50
74617;DHT22;63123;50.906;4.198;2023-08-24T07:02:35;21.30;74.50
74617;DHT22;63123;50.906;4.198;2023-08-24T07:05:00;21.30;74.50
74617;DHT22;63123;50.906;4.198;2023-08-24T07:07:26;21.30;74.50
74617;DHT22;63123;50.906;4.198;2023-08-24T07:09:52;21.30;74.50
74617;DHT22;63123;50.906;4.198;2023-08-24T07:12:17;21.30;74.50
74617;DHT22;63123;50.906;4.198;2023-08-24T07:14:43;21.30;74.50
74617;DHT22;63123;50.906;4.198;2023-08-24T07:17:09;21.30;75.10
74617;DHT22;63123;50.906;4.198;2023-08-24T07:19:35;21.30;74.50
74617;DHT22;63123;50.906;4.198;2023-08-24T07:22:00;21.30;74.50
74617;DHT22;63123;50.906;4.198;2023-08-24T07:24:26;21.30;74.50
74617;DHT22;63123;50.906;4.198;2023-08-24T07:26:54;21.30;74.50
74617;DHT22;63123;50.906;4.198;2023-08-24T07:29:20;21.30;74.60
74617;DHT22;63123;50.906;4.198;2023-08-24T07:31:47;21.30;74.60
74617;DHT22;63123;50.906;4.198;2023-08-24T07:34:12;21.30;74.60
74617;DHT22;63123;50.906;4.198;2023-08-24T07:36:38;21.30;74.60
74617;DHT22;63123;50.906;4.198;2023-08-24T07:39:04;21.30;74.60
74617;DHT22;63123;50.906;4.198;2023-08-24T07:41:30;21.30;74.60
74617;DHT22;63123;50.906;4.198;2023-08-24T07:43:55;21.20;74.60
74617;DHT22;63123;50.906;4.198;2023-08-24T07:46:21;21.30;74.70
74617;DHT22;63123;50.906;4.198;2023-08-24T07:48:47;21.30;74.70
74617;DHT22;63123;50.906;4.198;2023-08-24T07:51:12;21.30;74.70
74617;DHT22;63123;50.906;4.198;2023-08-24T07:53:38;21.30;74.70
74617;DHT22;63123;50.906;4.198;2023-08-24T07:56:03;21.30;74.70
74617;DHT22;63123;50.906;4.198;2023-08-24T07:58:29;21.30;74.80
74617;DHT22;63123;50.906;4.198;2023-08-24T08:00:57;21.30;74.80
74617;DHT22;63123;50.906;4.198;2023-08-24T08:03:23;21.30;74.80
74617;DHT22;63123;50.906;4.198;2023-08-24T08:05:49;21.30;74.80
74617;DHT22;63123;50.906;4.198;2023-08-24T08:08:14;21.30;74.80
74617;DHT22;63123;50.906;4.198;2023-08-24T08:10:40;21.30;74.80
74617;DHT22;63123;50.906;4.198;2023-08-24T08:13:07;21.30;74.80
74617;DHT22;63123;50.906;4.198;2023-08-24T08:15:33;21.30;74.80
74617;DHT22;63123;50.906;4.198;2023-08-24T08:17:58;21.30;74.80
74617;DHT22;63123;50.906;4.198;2023-08-24T08:20:24;21.30;74.80
74617;DHT22;63123;50.906;4.198;2023-08-24T08:22:50;21.30;74.80
74617;DHT22;63123;50.906;4.198;2023-08-24T08:25:16;21.30;74.90
74617;DHT22;63123;50.906;4.198;2023-08-24T08:27:44;21.30;74.90
74617;DHT22;63123;50.906;4.198;2023-08-24T08:30:10;21.30;74.90
74617;DHT22;63123;50.906;4.198;2023-08-24T08:32:36;21.30;74.90
74617;DHT22;63123;50.906;4.198;2023-08-24T08:35:02;21.30;74.90
74617;DHT22;63123;50.906;4.198;2023-08-24T08:37:30;21.30;75.00
74617;DHT22;63123;50.906;4.198;2023-08-24T08:39:57;21.30;74.90
74617;DHT22;63123;50.906;4.198;2023-08-24T08:42:23;21.30;74.90
74617;DHT22;63123;50.906;4.198;2023-08-24T08:44:49;21.30;75.00
74617;DHT22;63123;50.906;4.198;2023-08-24T08:47:15;21.30;75.00
74617;DHT22;63123;50.906;4.198;2023-08-24T08:49:43;21.30;75.00
74617;DHT22;63123;50.906;4.198;2023-08-24T08:52:10;21.30;75.00
74617;DHT22;63123;50.906;4.198;2023-08-24T08:54:36;21.30;75.00
74617;DHT22;63123;50.906;4.198;2023-08-24T08:57:02;21.30;75.10
74617;DHT22;63123;50.906;4.198;2023-08-24T08:59:29;21.30;75.10
74617;DHT22;63123;50.906;4.198;2023-08-24T09:01:57;21.30;75.10
74617;DHT22;63123;50.906;4.198;2023-08-24T09:04:24;21.30;75.10
74617;DHT22;63123;50.906;4.198;2023-08-24T09:06:50;21.30;75.20
74617;DHT22;63123;50.906;4.198;2023-08-24T09:09:16;21.30;75.20
74617;DHT22;63123;50.906;4.198;2023-08-24T09:11:42;21.30;75.20
74617;DHT22;63123;50.906;4.198;2023-08-24T09:14:12;21.30;75.30
74617;DHT22;63123;50.906;4.198;2023-08-24T09:16:39;21.30;75.30
74617;DHT22;63123;50.906;4.198;2023-08-24T09:19:05;21.30;75.30
74617;DHT22;63123;50.906;4.198;2023-08-24T09:21:36;21.30;75.30
74617;DHT22;63123;50.906;4.198;2023-08-24T09:24:02;21.30;75.40
74617;DHT22;63123;50.906;4.198;2023-08-24T09:26:29;21.30;75.40
74617;DHT22;63123;50.906;4.198;2023-08-24T09:28:55;21.20;75.30
74617;DHT22;63123;50.906;4.198;2023-08-24T09:31:22;21.30;75.40
74617;DHT22;63123;50.906;4.198;2023-08-24T09:33:48;21.30;75.40
74617;DHT22;63123;50.906;4.198;2023-08-24T09:36:14;21.30;75.50
74617;DHT22;63123;50.906;4.198;2023-08-24T09:38:46;21.30;75.50
74617;DHT22;63123;50.906;4.198;2023-08-24T09:41:16;21.30;75.40
74617;DHT22;63123;50.906;4.198;2023-08-24T09:43:41;21.30;75.40
74617;DHT22;63123;50.906;4.198;2023-08-24T09:46:07;21.30;75.40
74617;DHT22;63123;50.906;4.198;2023-08-24T09:48:33;21.30;75.40
74617;DHT22;63123;50.906;4.198;2023-08-24T09:51:03;21.30;75.40
74617;DHT22;63123;50.906;4.198;2023-08-24T09:53:32;21.30;75.80
74617;DHT22;63123;50.906;4.198;2023-08-24T09:56:01;21.30;75.40
74617;DHT22;63123;50.906;4.198;2023-08-24T09:58:28;21.30;75.40
74617;DHT22;63123;50.906;4.198;2023-08-24T10:00:55;21.30;75.40
74617;DHT22;63123;50.906;4.198;2023-08-24T10:03:25;21.30;75.40
74617;DHT22;63123;50.906;4.198;2023-08-24T10:05:55;21.30;75.40
74617;DHT22;63123;50.906;4.198;2023-08-24T10:08:43;21.30;75.40
74617;DHT22;63123;50.906;4.198;2023-08-24T10:11:10;21.30;75.40
74617;DHT22;63123;50.906;4.198;2023-08-24T10:16:36;21.30;75.40
74617;DHT22;63123;50.906;4.198;2023-08-24T10:19:03;21.30;75.40
74617;DHT22;63123;50.906;4.198;2023-08-24T10:21:30;21.30;75.40
74617;DHT22;63123;50.906;4.198;2023-08-24T10:23:57;21.30;75.40
74617;DHT22;63123;50.906;4.198;2023-08-24T10:26:23;21.30;75.40
74617;DHT22;63123;50.906;4.198;2023-08-24T10:28:53;21.30;75.40
74617;DHT22;63123;50.906;4.198;2023-08-24T10:31:19;21.30;75.40
74617;DHT22;63123;50.906;4.198;2023-08-24T10:33:46;21.30;75.40
74617;DHT22;63123;50.906;4.198;2023-08-24T10:36:13;21.30;75.40
74617;DHT22;63123;50.906;4.198;2023-08-24T10:38:43;21.30;75.40
74617;DHT22;63123;50.906;4.198;2023-08-24T10:41:09;21.30;75.40
74617;DHT22;63123;50.906;4.198;2023-08-24T10:43:38;21.30;75.50
74617;DHT22;63123;50.906;4.198;2023-08-24T10:46:05;21.30;75.50
74617;DHT22;63123;50.906;4.198;2023-08-24T10:54:00;21.30;75.60
74617;DHT22;63123;50.906;4.198;2023-08-24T10:56:37;21.30;75.60
74617;DHT22;63123;50.906;4.198;2023-08-24T10:59:17;21.30;75.60
74617;DHT22;63123;50.906;4.198;2023-08-24T11:02:03;21.30;75.70
74617;DHT22;63123;50.906;4.198;2023-08-24T11:04:29;21.30;75.60
74617;DHT22;63123;50.906;4.198;2023-08-24T11:06:59;21.30;75.70
74617;DHT22;63123;50.906;4.198;2023-08-24T11:09:45;21.30;75.70
74617;DHT22;63123;50.906;4.198;2023-08-24T11:12:14;21.30;75.70
74617;DHT22;63123;50.906;4.198;2023-08-24T11:14:52;21.30;75.80
74617;DHT22;63123;50.906;4.198;2023-08-24T11:17:24;21.30;75.80
74617;DHT22;63123;50.906;4.198;2023-08-24T11:19:51;21.30;75.80
74617;DHT22;63123;50.906;4.198;2023-08-24T11:22:17;21.30;75.90
74617;DHT22;63123;50.906;4.198;2023-08-24T11:24:43;21.30;75.90
74617;DHT22;63123;50.906;4.198;2023-08-24T11:27:09;21.30;75.90
74617;DHT22;63123;50.906;4.198;2023-08-24T11:29:35;21.30;76.00
74617;DHT22;63123;50.906;4.198;2023-08-24T11:32:01;21.30;76.00
74617;DHT22;63123;50.906;4.198;2023-08-24T11:34:27;21.30;76.00
74617;DHT22;63123;50.906;4.198;2023-08-24T11:36:52;21.30;76.00
74617;DHT22;63123;50.906;4.198;2023-08-24T11:39:20;21.30;76.00
74617;DHT22;63123;50.906;4.198;2023-08-24T11:42:03;21.30;76.10
74617;DHT22;63123;50.906;4.198;2023-08-24T11:44:29;21.30;76.00
74617;DHT22;63123;50.906;4.198;2023-08-24T11:46:59;21.30;76.10
74617;DHT22;63123;50.906;4.198;2023-08-24T11:49:25;21.30;76.10
74617;DHT22;63123;50.906;4.198;2023-08-24T11:51:51;21.30;76.10
74617;DHT22;63123;50.906;4.198;2023-08-24T11:54:20;21.30;76.10
74617;DHT22;63123;50.906;4.198;2023-08-24T11:56:46;21.30;76.10
74617;DHT22;63123;50.906;4.198;2023-08-24T11:59:13;21.30;76.10
74617;DHT22;63123;50.906;4.198;2023-08-24T12:01:41;21.30;76.10
74617;DHT22;63123;50.906;4.198;2023-08-24T12:04:07;21.30;76.10
74617;DHT22;63123;50.906;4.198;2023-08-24T12:06:33;21.30;76.20
74617;DHT22;63123;50.906;4.198;2023-08-24T12:08:59;21.30;76.10
74617;DHT22;63123;50.906;4.198;2023-08-24T12:11:24;21.30;76.10
74617;DHT22;63123;50.906;4.198;2023-08-24T12:13:53;21.30;76.20
74617;DHT22;63123;50.906;4.198;2023-08-24T12:16:20;21.30;76.20
74617;DHT22;63123;50.906;4.198;2023-08-24T12:18:54;21.30;76.10
74617;DHT22;63123;50.906;4.198;2023-08-24T12:21:21;21.30;76.20
74617;DHT22;63123;50.906;4.198;2023-08-24T12:24:01;21.30;76.30
74617;DHT22;63123;50.906;4.198;2023-08-24T12:26:29;21.30;76.20
74617;DHT22;63123;50.906;4.198;2023-08-24T12:29:08;21.30;76.30
74617;DHT22;63123;50.906;4.198;2023-08-24T12:31:35;21.30;76.30
74617;DHT22;63123;50.906;4.198;2023-08-24T12:34:04;21.30;76.30
74617;DHT22;63123;50.906;4.198;2023-08-24T12:36:32;21.30;76.40
74617;DHT22;63123;50.906;4.198;2023-08-24T12:38:59;21.30;76.40
74617;DHT22;63123;50.906;4.198;2023-08-24T12:41:24;21.30;76.40
74617;DHT22;63123;50.906;4.198;2023-08-24T12:43:51;21.30;76.40
74617;DHT22;63123;50.906;4.198;2023-08-24T12:46:17;21.30;76.50
74617;DHT22;63123;50.906;4.198;2023-08-24T12:48:43;21.30;76.50
74617;DHT22;63123;50.906;4.198;2023-08-24T12:51:08;21.30;76.50
74617;DHT22;63123;50.906;4.198;2023-08-24T12:53:34;21.30;76.60
74617;DHT22;63123;50.906;4.198;2023-08-24T12:56:00;21.30;76.50
74617;DHT22;63123;50.906;4.198;2023-08-24T12:58:25;21.30;76.60
74617;DHT22;63123;50.906;4.198;2023-08-24T13:00:51;21.30;76.50
74617;DHT22;63123;50.906;4.198;2023-08-24T13:03:17;21.30;76.60
74617;DHT22;63123;50.906;4.198;2023-08-24T13:05:42;21.30;76.60
74617;DHT22;63123;50.906;4.198;2023-08-24T13:08:08;21.30;76.60
74617;DHT22;63123;50.906;4.198;2023-08-24T13:10:33;21.30;76.60
74617;DHT22;63123;50.906;4.198;2023-08-24T13:12:59;21.30;76.60
74617;DHT22;63123;50.906;4.198;2023-08-24T13:15:25;21.30;76.60
74617;DHT22;63123;50.906;4.198;2023-08-24T13:17:51;21.30;76.60
74617;DHT22;63123;50.906;4.198;2023-08-24T13:20:17;21.30;76.60
74617;DHT22;63123;50.906;4.198;2023-08-24T13:22:42;21.30;76.60
74617;DHT22;63123;50.906;4.198;2023-08-24T13:25:09;21.30;76.60
74617;DHT22;63123;50.906;4.198;2023-08-24T13:27:34;21.30;76.60
74617;DHT22;63123;50.906;4.198;2023-08-24T13:30:00;21.30;76.60
74617;DHT22;63123;50.906;4.198;2023-08-24T13:32:26;21.30;76.60
74617;DHT22;63123;50.906;4.198;2023-08-24T13:34:52;21.30;76.70
74617;DHT22;63123;50.906;4.198;2023-08-24T13:37:18;21.30;76.70
74617;DHT22;63123;50.906;4.198;2023-08-24T13:39:44;21.30;76.70
74617;DHT22;63123;50.906;4.198;2023-08-24T13:42:09;21.30;76.70
74617;DHT22;63123;50.906;4.198;2023-08-24T13:44:35;21.30;76.70
74617;DHT22;63123;50.906;4.198;2023-08-24T13:47:00;21.30;76.70
74617;DHT22;63123;50.906;4.198;2023-08-24T13:49:26;21.30;76.70
74617;DHT22;63123;50.906;4.198;2023-08-24T13:51:52;21.30;76.70
74617;DHT22;63123;50.906;4.198;2023-08-24T13:54:18;21.30;76.80
74617;DHT22;63123;50.906;4.198;2023-08-24T13:56:45;21.30;76.80
74617;DHT22;63123;50.906;4.198;2023-08-24T13:59:12;21.30;76.80
74617;DHT22;63123;50.906;4.198;2023-08-24T14:01:37;21.30;76.80
74617;DHT22;63123;50.906;4.198;2023-08-24T14:04:03;21.30;76.80
74617;DHT22;63123;50.906;4.198;2023-08-24T14:06:31;21.30;76.90
74617;DHT22;63123;50.906;4.198;2023-08-24T14:08:57;21.30;76.90
74617;DHT22;63123;50.906;4.198;2023-08-24T14:11:23;21.30;76.90
74617;DHT22;63123;50.906;4.198;2023-08-24T14:13:49;21.30;76.90
74617;DHT22;63123;50.906;4.198;2023-08-24T14:16:15;21.30;76.90
74617;DHT22;63123;50.906;4.198;2023-08-24T14:18:40;21.30;76.90
74617;DHT22;63123;50.906;4.198;2023-08-24T14:21:06;21.30;76.90
74617;DHT22;63123;50.906;4.198;2023-08-24T14:23:32;21.30;77.00
74617;DHT22;63123;50.906;4.198;2023-08-24T14:25:58;21.30;76.90
74617;DHT22;63123;50.906;4.198;2023-08-24T14:28:23;21.30;76.90
74617;DHT22;63123;50.906;4.198;2023-08-24T14:30:52;21.30;76.90
74617;DHT22;63123;50.906;4.198;2023-08-24T14:33:18;21.30;76.90
74617;DHT22;63123;50.906;4.198;2023-08-24T14:35:53;21.30;77.00
74617;DHT22;63123;50.906;4.198;2023-08-24T14:38:19;21.30;77.00
74617;DHT22;63123;50.906;4.198;2023-08-24T14:40:44;21.30;77.00
74617;DHT22;63123;50.906;4.198;2023-08-24T14:43:10;21.30;77.00
74617;DHT22;63123;50.906;4.198;2023-08-24T14:45:36;21.30;77.10
74617;DHT22;63123;50.906;4.198;2023-08-24T14:48:02;21.30;77.00
74617;DHT22;63123;50.906;4.198;2023-08-24T14:50:28;21.30;77.00
74617;DHT22;63123;50.906;4.198;2023-08-24T14:52:53;21.30;77.00
74617;DHT22;63123;50.906;4.198;2023-08-24T14:55:19;21.30;77.00
74617;DHT22;63123;50.906;4.198;2023-08-24T14:57:44;21.30;77.10
74617;DHT22;63123;50.906;4.198;2023-08-24T15:00:10;21.30;77.10
74617;DHT22;63123;50.906;4.198;2023-08-24T15:02:36;21.30;77.10
74617;DHT22;63123;50.906;4.198;2023-08-24T15:05:03;21.30;77.00
74617;DHT22;63123;50.906;4.198;2023-08-24T15:07:30;21.30;77.10
74617;DHT22;63123;50.906;4.198;2023-08-24T15:09:56;21.30;77.10
74617;DHT22;63123;50.906;4.198;2023-08-24T15:12:22;21.30;77.10
74617;DHT22;63123;50.906;4.198;2023-08-24T15:14:58;21.30;77.10
74617;DHT22;63123;50.906;4.198;2023-08-24T15:17:24;21.30;77.00
74617;DHT22;63123;50.906;4.198;2023-08-24T15:19:50;21.30;77.10
74617;DHT22;63123;50.906;4.198;2023-08-24T15:22:15;21.30;77.10
74617;DHT22;63123;50.906;4.198;2023-08-24T15:24:41;21.30;77.20
74617;DHT22;63123;50.906;4.198;2023-08-24T15:27:07;21.30;77.20
74617;DHT22;63123;50.906;4.198;2023-08-24T15:29:33;21.30;77.20
74617;DHT22;63123;50.906;4.198;2023-08-24T15:31:59;21.30;77.20
74617;DHT22;63123;50.906;4.198;2023-08-24T15:34:25;21.30;77.10
74617;DHT22;63123;50.906;4.198;2023-08-24T15:36:51;21.30;77.10
74617;DHT22;63123;50.906;4.198;2023-08-24T15:39:19;21.30;77.10